createdAt,value
2023-02-25T00:02:03.902Z,3.30
2023-02-25T00:06:09.474Z,3.00
2023-02-25T00:10:13.146Z,3.03
2023-02-25T00:14:14.614Z,2.63
2023-02-25T00:18:16.268Z,2.97
2023-02-25T00:22:19.218Z,3.30
2023-02-25T00:26:22.167Z,3.87
2023-02-25T00:30:23.866Z,2.87
2023-02-25T00:34:25.439Z,3.17
2023-02-25T00:38:28.298Z,2.87
2023-02-25T00:42:29.709Z,2.93
2023-02-25T00:46:32.913Z,3.53
2023-02-25T00:50:35.245Z,3.43
2023-02-25T00:54:38.010Z,2.87
2023-02-25T00:58:39.386Z,2.67
2023-02-25T01:02:40.847Z,3.27
2023-02-25T01:06:42.304Z,3.40
2023-02-25T01:10:46.385Z,2.67
2023-02-25T01:14:47.820Z,2.80
2023-02-25T01:18:52.275Z,3.13
2023-02-25T01:22:53.734Z,2.87
2023-02-25T01:26:58.338Z,2.90
2023-02-25T01:30:59.990Z,3.37
2023-02-25T01:35:01.386Z,2.60
2023-02-25T01:39:04.230Z,2.40
2023-02-25T01:43:14.443Z,2.70
2023-02-25T01:47:19.630Z,2.73
2023-02-25T01:51:21.771Z,2.47
2023-02-25T01:55:23.392Z,3.30
2023-02-25T01:59:28.702Z,2.53
2023-02-25T02:03:34.259Z,2.97
2023-02-25T02:07:35.751Z,2.60
2023-02-25T02:11:37.181Z,2.87
2023-02-25T02:15:48.530Z,2.60
2023-02-25T02:20:03.740Z,2.43
2023-02-25T02:24:35.971Z,2.73
2023-02-25T02:29:17.746Z,2.67
2023-02-25T02:33:27.919Z,3.00
2023-02-25T02:37:38.440Z,3.50
2023-02-25T02:41:46.182Z,3.27
2023-02-25T02:45:52.031Z,3.10
2023-02-25T02:50:01.241Z,3.13
2023-02-25T02:54:06.007Z,2.43
2023-02-25T02:58:11.649Z,3.30
2023-02-25T03:02:18.158Z,2.80
2023-02-25T03:06:25.622Z,2.67
2023-02-25T03:10:27.514Z,2.63
2023-02-25T03:14:28.971Z,2.60
2023-02-25T03:18:38.752Z,3.53
2023-02-25T03:22:45.971Z,3.00
2023-02-25T03:26:48.052Z,2.40
2023-02-25T03:30:56.652Z,2.70
2023-02-25T03:35:01.212Z,2.73
2023-02-25T03:39:08.417Z,2.63
2023-02-25T03:43:13.170Z,2.37
2023-02-25T03:47:16.758Z,3.57
2023-02-25T03:51:22.016Z,2.60
2023-02-25T03:55:25.217Z,2.40
2023-02-25T03:59:26.677Z,2.60
2023-02-25T04:03:28.140Z,2.30
2023-02-25T04:07:29.803Z,3.07
2023-02-25T04:11:32.865Z,2.27
2023-02-25T04:15:34.371Z,2.60
2023-02-25T04:19:35.827Z,2.60
2023-02-25T04:23:37.221Z,2.60
2023-02-25T04:27:40.245Z,2.30
2023-02-25T04:31:44.162Z,2.47
2023-02-25T04:35:45.737Z,2.27
2023-02-25T04:39:47.179Z,2.20
2023-02-25T04:43:50.253Z,2.60
2023-02-25T04:47:52.520Z,2.63
2023-02-25T04:51:54.513Z,2.60
2023-02-25T04:55:55.907Z,2.73
2023-02-25T04:59:58.711Z,2.63
2023-02-25T05:04:00.492Z,3.00
2023-02-25T05:08:02.137Z,2.30
2023-02-25T05:12:04.260Z,2.60
2023-02-25T05:16:09.304Z,2.97
2023-02-25T05:20:12.053Z,2.67
2023-02-25T05:24:13.934Z,2.80
2023-02-25T05:28:15.327Z,2.53
2023-02-25T05:32:18.200Z,3.13
2023-02-25T05:36:19.863Z,3.00
2023-02-25T05:40:21.299Z,2.40
2023-02-25T05:44:22.833Z,2.40
2023-02-25T05:48:25.921Z,3.10
2023-02-25T05:52:27.394Z,2.60
2023-02-25T05:56:31.921Z,2.50
2023-02-25T06:00:33.600Z,2.20
2023-02-25T06:04:36.460Z,2.70
2023-02-25T06:08:38.349Z,3.27
2023-02-25T06:12:39.992Z,2.67
2023-02-25T06:16:42.320Z,2.70
2023-02-25T06:20:45.090Z,2.93
2023-02-25T06:24:46.890Z,3.33
2023-02-25T06:28:48.511Z,2.67
2023-02-25T06:32:50.044Z,2.47
2023-02-25T06:36:52.833Z,3.10
2023-02-25T06:40:54.322Z,3.00
2023-02-25T06:44:57.960Z,3.73
2023-02-25T06:48:59.552Z,2.83
2023-02-25T06:53:02.332Z,2.97
2023-02-25T06:57:03.937Z,2.90
2023-02-25T07:01:06.709Z,2.93
2023-02-25T07:05:09.041Z,2.90
2023-02-25T07:09:11.857Z,2.47
2023-02-25T07:13:14.439Z,3.03
2023-02-25T07:17:15.894Z,2.80
2023-02-25T07:21:18.827Z,2.60
2023-02-25T07:25:21.626Z,3.43
2023-02-25T07:29:23.293Z,2.10
2023-02-25T07:33:25.038Z,2.60
2023-02-25T07:37:26.509Z,3.33
2023-02-25T07:41:29.389Z,3.07
2023-02-25T07:45:30.853Z,2.83
2023-02-25T07:49:32.276Z,2.83
2023-02-25T07:53:33.989Z,3.17
2023-02-25T07:57:36.787Z,3.23
2023-02-25T08:01:42.149Z,2.67
2023-02-25T08:05:44.616Z,3.73
2023-02-25T08:09:46.079Z,2.90
2023-02-25T08:13:51.444Z,3.53
2023-02-25T08:17:52.856Z,2.87
2023-02-25T08:21:54.358Z,3.40
2023-02-25T08:25:57.258Z,2.90
2023-02-25T08:30:00.120Z,2.97
2023-02-25T08:34:01.611Z,3.30
2023-02-25T08:38:03.074Z,3.00
2023-02-25T08:42:04.864Z,3.60
2023-02-25T08:46:08.103Z,2.90
2023-02-25T08:50:10.848Z,2.83
2023-02-25T08:54:13.801Z,3.77
2023-02-25T08:58:15.212Z,3.33
2023-02-25T09:02:18.459Z,2.87
2023-02-25T09:06:21.811Z,2.53
2023-02-25T09:10:23.216Z,3.43
2023-02-25T09:14:24.703Z,3.20
2023-02-25T09:18:27.525Z,3.47
2023-02-25T09:22:28.986Z,3.33
2023-02-25T09:26:30.436Z,3.40
2023-02-25T09:30:38.058Z,4.03
2023-02-25T09:34:41.900Z,3.93
2023-02-25T09:38:45.132Z,3.37
2023-02-25T09:42:55.545Z,3.83
2023-02-25T09:47:02.641Z,3.60
2023-02-25T09:51:18.193Z,3.10
2023-02-25T09:55:22.596Z,4.00
2023-02-25T09:59:24.115Z,3.30
2023-02-25T10:03:52.953Z,2.80
2023-02-25T10:08:12.810Z,3.03
2023-02-25T10:12:29.244Z,2.70
2023-02-25T10:16:42.977Z,2.63
2023-02-25T10:20:57.599Z,2.50
2023-02-25T10:25:04.764Z,2.80
2023-02-25T10:29:10.330Z,2.60
2023-02-25T10:33:18.052Z,2.97
2023-02-25T10:37:21.697Z,2.10
2023-02-25T10:41:25.467Z,2.17
2023-02-25T10:45:29.802Z,2.37
2023-02-25T10:49:31.798Z,2.73
2023-02-25T10:53:34.141Z,2.67
2023-02-25T10:57:41.979Z,2.23
2023-02-25T11:01:43.889Z,2.47
2023-02-25T11:05:45.418Z,3.93
2023-02-25T11:09:46.804Z,1.83
2023-02-25T11:14:04.213Z,1.90
2023-02-25T11:18:15.646Z,1.70
2023-02-25T11:22:20.121Z,1.53
2023-02-25T11:26:29.115Z,1.30
2023-02-25T11:30:35.412Z,1.13
2023-02-25T11:34:46.076Z,2.63
2023-02-25T11:43:19.554Z,1.97
2023-02-25T11:47:29.629Z,2.40
2023-02-25T11:51:42.865Z,2.20
2023-02-25T11:55:58.216Z,2.03
2023-02-25T12:00:18.402Z,1.73
2023-02-25T12:04:50.817Z,1.90
2023-02-25T12:09:24.134Z,2.80
2023-02-25T12:13:58.428Z,3.50
2023-02-25T12:18:29.995Z,3.40
2023-02-25T12:22:51.873Z,3.63
2023-02-25T12:27:09.432Z,3.67
2023-02-25T12:31:49.631Z,3.40
2023-02-25T12:36:10.194Z,2.93
2023-02-25T12:40:32.194Z,2.40
2023-02-25T12:44:51.672Z,2.37
2023-02-25T12:49:23.194Z,2.60
2023-02-25T12:53:37.352Z,2.30
2023-02-25T12:57:46.270Z,2.30
2023-02-25T13:02:17.554Z,2.57
2023-02-25T13:06:36.526Z,2.67
2023-02-25T13:10:54.831Z,2.33
2023-02-25T13:15:04.276Z,2.00
2023-02-25T13:19:22.337Z,2.30
2023-02-25T13:23:55.279Z,2.17
2023-02-25T13:28:11.319Z,1.90
2023-02-25T13:32:26.572Z,1.53
2023-02-25T13:36:40.620Z,1.90
2023-02-25T13:40:57.816Z,1.77
2023-02-25T13:45:28.591Z,1.80
2023-02-25T13:49:53.695Z,1.80
2023-02-25T13:54:11.760Z,1.50
2023-02-25T13:58:35.628Z,2.07
2023-02-25T14:03:05.816Z,1.77
2023-02-25T14:07:25.808Z,2.27
2023-02-25T14:11:49.534Z,1.60
2023-02-25T14:16:00.818Z,2.00
2023-02-25T14:20:17.953Z,2.30
2023-02-25T14:24:28.546Z,1.93
2023-02-25T14:28:42.549Z,1.77
2023-02-25T14:32:54.758Z,2.10
2023-02-25T14:37:08.228Z,1.50
2023-02-25T14:41:27.439Z,1.97
2023-02-25T14:45:34.520Z,2.07
2023-02-25T14:49:43.516Z,2.00
2023-02-25T14:54:14.822Z,2.70
2023-02-25T14:58:52.841Z,1.77
2023-02-25T15:03:28.574Z,1.80
2023-02-25T15:07:48.876Z,1.70
2023-02-25T15:12:02.250Z,2.13
2023-02-25T15:16:32.455Z,1.80
2023-02-25T15:20:34.961Z,1.50
2023-02-25T15:24:38.869Z,1.60
2023-02-25T15:28:42.826Z,1.70
2023-02-25T15:32:56.929Z,1.20
2023-02-25T15:37:20.045Z,1.60
2023-02-25T15:41:41.048Z,1.33
2023-02-25T15:45:44.389Z,1.63
2023-02-25T15:49:50.092Z,1.30
2023-02-25T15:53:52.030Z,1.60
2023-02-25T15:57:53.623Z,1.73
2023-02-25T16:01:55.051Z,1.50
2023-02-25T16:06:01.210Z,1.90
2023-02-25T16:10:08.281Z,2.60
2023-02-25T16:14:16.668Z,1.40
2023-02-25T16:18:26.690Z,1.20
2023-02-25T16:22:30.037Z,1.27
2023-02-25T16:26:43.460Z,1.30
2023-02-25T16:30:51.974Z,1.40
2023-02-25T16:34:58.566Z,1.20
2023-02-25T16:39:03.897Z,0.90
2023-02-25T16:43:09.902Z,1.20
2023-02-25T16:47:22.902Z,1.30
2023-02-25T16:51:28.828Z,1.23
2023-02-25T16:55:40.170Z,1.10
2023-02-25T16:59:41.731Z,1.33
2023-02-25T17:03:45.343Z,1.10
2023-02-25T17:07:54.365Z,1.40
2023-02-25T17:11:58.607Z,1.63
2023-02-25T17:16:01.717Z,1.87
2023-02-25T17:20:06.308Z,1.70
2023-02-25T17:24:13.088Z,2.40
2023-02-25T17:28:23.041Z,2.10
2023-02-25T17:32:25.910Z,2.00
2023-02-25T17:36:30.364Z,1.30
2023-02-25T17:40:34.143Z,2.13
2023-02-25T17:44:46.920Z,1.93
2023-02-25T17:48:51.811Z,1.70
2023-02-25T17:52:53.471Z,1.60
2023-02-25T17:56:56.628Z,3.30
2023-02-25T18:01:00.502Z,2.30
2023-02-25T18:05:18.221Z,1.60
2023-02-25T18:09:36.859Z,1.90
2023-02-25T18:13:38.492Z,1.87
2023-02-25T18:17:42.921Z,3.10
2023-02-25T18:21:44.582Z,3.00
2023-02-25T18:25:48.348Z,3.20
2023-02-25T18:29:50.358Z,2.67
2023-02-25T18:33:53.177Z,2.00
2023-02-25T18:37:56.126Z,2.17
2023-02-25T18:41:57.486Z,1.90
2023-02-25T18:45:58.947Z,1.60
2023-02-25T18:50:01.755Z,1.80
2023-02-25T18:54:03.485Z,4.10
2023-02-25T18:58:04.939Z,2.10
2023-02-25T19:02:20.991Z,3.03
2023-02-25T19:06:24.428Z,2.70
2023-02-25T19:10:27.733Z,2.07
2023-02-25T19:14:29.174Z,1.70
2023-02-25T19:18:30.919Z,1.40
2023-02-25T19:22:33.733Z,1.70
2023-02-25T19:26:35.981Z,2.73
2023-02-25T19:30:40.020Z,1.90
2023-02-25T19:34:41.784Z,2.07
2023-02-25T19:38:44.621Z,2.10
2023-02-25T19:42:46.150Z,1.73
2023-02-25T19:46:47.671Z,1.70
2023-02-25T19:50:49.189Z,1.80
2023-02-25T19:54:51.983Z,2.03
2023-02-25T19:58:55.959Z,1.63
2023-02-25T20:02:57.423Z,1.80
2023-02-25T20:06:59.203Z,2.30
2023-02-25T20:11:02.214Z,3.13
2023-02-25T20:15:04.670Z,2.10
2023-02-25T20:19:06.431Z,2.30
2023-02-25T20:23:07.906Z,2.03
2023-02-25T20:27:10.609Z,2.70
2023-02-25T20:31:14.284Z,2.10
2023-02-25T20:35:18.576Z,2.40
2023-02-25T20:39:42.485Z,2.27
2023-02-25T20:43:45.447Z,2.50
2023-02-25T20:47:47.156Z,2.30
2023-02-25T20:51:49.205Z,2.70
2023-02-25T20:55:53.519Z,2.70
2023-02-25T20:59:56.291Z,3.93
2023-02-25T21:03:57.786Z,5.03
2023-02-25T21:07:59.236Z,3.17
2023-02-25T21:12:00.644Z,2.70
2023-02-25T21:16:05.916Z,2.43
2023-02-25T21:20:08.842Z,2.50
2023-02-25T21:24:10.400Z,1.90
2023-02-25T21:28:11.859Z,1.90
2023-02-25T21:32:14.884Z,2.10
2023-02-25T21:36:16.379Z,2.00
2023-02-25T21:40:18.430Z,2.20
2023-02-25T21:44:20.273Z,1.97
2023-02-25T21:48:25.582Z,1.60
2023-02-25T21:52:27.089Z,2.10
2023-02-25T21:56:29.540Z,2.10
2023-02-25T22:00:31.129Z,1.70
2023-02-25T22:04:35.035Z,1.60
2023-02-25T22:08:38.628Z,2.03
2023-02-25T22:12:40.087Z,1.83
2023-02-25T22:16:41.590Z,1.60
2023-02-25T22:20:44.324Z,1.80
2023-02-25T22:24:45.798Z,1.70
2023-02-25T22:28:47.313Z,1.70
2023-02-25T22:32:48.716Z,2.10
2023-02-25T22:36:51.472Z,2.33
2023-02-25T22:40:53.234Z,2.33
2023-02-25T22:44:54.640Z,2.10
2023-02-25T22:48:56.483Z,2.30
2023-02-25T22:52:59.266Z,2.30
2023-02-25T22:57:00.715Z,2.20
2023-02-25T23:01:02.587Z,1.90
2023-02-25T23:05:04.459Z,2.30
2023-02-25T23:09:07.511Z,2.07
2023-02-25T23:13:08.924Z,2.30
2023-02-25T23:17:10.328Z,2.00
2023-02-25T23:21:13.647Z,2.20
2023-02-25T23:25:16.651Z,1.90
2023-02-25T23:29:18.071Z,2.03
2023-02-25T23:33:19.459Z,2.20
2023-02-25T23:37:20.930Z,1.73
2023-02-25T23:41:24.958Z,1.70
2023-02-25T23:45:26.619Z,2.00
2023-02-25T23:49:28.536Z,2.43
2023-02-25T23:53:29.946Z,1.73
2023-02-25T23:57:32.762Z,1.40
